Coastal Messenger — CFL9726 — position and weather

sailwx.info

Track history (hours):
 
Tides and Currents Weather Stations Pressure Air Temp Water Temp Dewpoint Dewpoint Depression Visibility Wind Speed Wind Dir Waves Ship Positions

Coastal Messenger

Last reported at 2016-Jun-07 18:33 UTC. Time now 2016-Jul-27 13:31 UTC.
Position N 52°10' W 128°08'.
Warning: this ship's position is 49 days out of date.

Length 16 m.

Type: Pleasure craft. MMSI: 316016342.

Date/timePositionNaut miles runAvg speedWind from/ knotsBaromVisibWave heightAir tempDewpointWater temp
2016-Jun-07 18:33N 52°10' W 128°08'68 2.5
2016-Jun-06 15:33N 51°04' W 127°40'6 6.0
2016-Jun-06 14:31N 51°03' W 127°31'0 0.0
2016-Jun-06 13:31N 51°03' W 127°31'0 0.0
2016-Jun-06 12:31N 51°03' W 127°31'0 0.0
2016-Jun-06 11:07N 51°03' W 127°31'0 0.0
2016-Jun-06 10:25N 51°03' W 127°31'0 0.0
2016-Jun-06 09:31N 51°03' W 127°31'0 0.0
2016-Jun-06 08:31N 51°03' W 127°31'0 0.0
2016-Jun-06 07:25N 51°03' W 127°31'0 0.0
2016-Jun-06 06:31N 51°03' W 127°31'0 0.0
2016-Jun-06 05:33N 51°03' W 127°31'0 0.0
2016-Jun-06 04:31N 51°03' W 127°31'0 0.0
2016-Jun-06 03:30N 51°03' W 127°31'0 0.0
2016-Jun-06 01:27N 51°03' W 127°31'0 0.0
2016-Jun-06 00:32N 51°03' W 127°31'5 5.4
2016-Jun-05 23:33N 50°58' W 127°32'8 7.7
2016-Jun-05 22:33N 50°50' W 127°30'  
2016-Jun-01 18:13N 50°43' W 127°29'3 1.6
2016-Jun-01 16:19N 50°46' W 127°29'4 5.1
2016-Jun-01 15:30N 50°50' W 127°32'0 0.0
2016-Jun-01 14:30N 50°50' W 127°32'0 0.0
2016-Jun-01 13:30N 50°50' W 127°32'0 0.0
2016-Jun-01 12:30N 50°50' W 127°32'0 0.0
2016-Jun-01 11:30N 50°50' W 127°32'0 0.0
2016-Jun-01 10:30N 50°50' W 127°32'0 0.0
2016-Jun-01 09:30N 50°50' W 127°32'0 0.0
2016-Jun-01 08:30N 50°50' W 127°32'0 0.0
2016-Jun-01 07:30N 50°50' W 127°32'0 0.0
2016-Jun-01 06:30N 50°50' W 127°32'0 0.0
2016-Jun-01 05:30N 50°50' W 127°32'0 0.0
2016-Jun-01 04:30N 50°50' W 127°32'0 0.0
2016-Jun-01 03:30N 50°50' W 127°32'0 0.0
2016-Jun-01 02:30N 50°50' W 127°32'0 0.0
2016-Jun-01 01:33N 50°50' W 127°32'0 0.0
2016-Jun-01 00:33N 50°50' W 127°32'0 0.1
2016-May-31 23:32N 50°50' W 127°32'8 7.3
2016-May-31 22:30N 50°51' W 127°44'  
Track history (hours):
 
Tides and Currents Weather Stations Pressure Air Temp Water Temp Dewpoint Dewpoint Depression Visibility Wind Speed Wind Dir Waves Ship Positions

Coastal Messenger

Last reported at 2016-Jun-07 18:33 UTC. Time now 2016-Jul-27 13:31 UTC.
Position N 52°10' W 128°08'.
Warning: this ship's position is 49 days out of date.

Length 16 m.

Type: Pleasure craft. MMSI: 316016342.

Date/timePositionNaut miles runAvg speedWind from/ knotsBaromVisibWave heightAir tempDewpointWater temp
2016-Jun-07 18:33N 52°10' W 128°08'68 2.5
2016-Jun-06 15:33N 51°04' W 127°40'6 6.0
2016-Jun-06 14:31N 51°03' W 127°31'0 0.0
2016-Jun-06 13:31N 51°03' W 127°31'0 0.0
2016-Jun-06 12:31N 51°03' W 127°31'0 0.0
2016-Jun-06 11:07N 51°03' W 127°31'0 0.0
2016-Jun-06 10:25N 51°03' W 127°31'0 0.0
2016-Jun-06 09:31N 51°03' W 127°31'0 0.0
2016-Jun-06 08:31N 51°03' W 127°31'0 0.0
2016-Jun-06 07:25N 51°03' W 127°31'0 0.0
2016-Jun-06 06:31N 51°03' W 127°31'0 0.0
2016-Jun-06 05:33N 51°03' W 127°31'0 0.0
2016-Jun-06 04:31N 51°03' W 127°31'0 0.0
2016-Jun-06 03:30N 51°03' W 127°31'0 0.0
2016-Jun-06 01:27N 51°03' W 127°31'0 0.0
2016-Jun-06 00:32N 51°03' W 127°31'5 5.4
2016-Jun-05 23:33N 50°58' W 127°32'8 7.7
2016-Jun-05 22:33N 50°50' W 127°30'  
2016-Jun-01 18:13N 50°43' W 127°29'3 1.6
2016-Jun-01 16:19N 50°46' W 127°29'4 5.1
2016-Jun-01 15:30N 50°50' W 127°32'0 0.0
2016-Jun-01 14:30N 50°50' W 127°32'0 0.0
2016-Jun-01 13:30N 50°50' W 127°32'0 0.0
2016-Jun-01 12:30N 50°50' W 127°32'0 0.0
2016-Jun-01 11:30N 50°50' W 127°32'0 0.0
2016-Jun-01 10:30N 50°50' W 127°32'0 0.0
2016-Jun-01 09:30N 50°50' W 127°32'0 0.0
2016-Jun-01 08:30N 50°50' W 127°32'0 0.0
2016-Jun-01 07:30N 50°50' W 127°32'0 0.0
2016-Jun-01 06:30N 50°50' W 127°32'0 0.0
2016-Jun-01 05:30N 50°50' W 127°32'0 0.0
2016-Jun-01 04:30N 50°50' W 127°32'0 0.0
2016-Jun-01 03:30N 50°50' W 127°32'0 0.0
2016-Jun-01 02:30N 50°50' W 127°32'0 0.0
2016-Jun-01 01:33N 50°50' W 127°32'0 0.0
2016-Jun-01 00:33N 50°50' W 127°32'0 0.1
2016-May-31 23:32N 50°50' W 127°32'8 7.3
2016-May-31 22:30N 50°51' W 127°44'  

Dump ship's entire track history